Meruoca, Brazil
Current Conditions -  °F | °C
As of 7:00 AM on Saturday 22 Nov 2014 (Local Time) from SBPB Reporting Station
Few Clouds Few Clouds  
Wind Chill: 84°   Ceiling: Unl
Heat Index: 90°   Visibility: 6mi
Dew Point: 72°   Wind: 18mph
Humidity: 66%   Direction: 100°E
Pressure: 29.83"   Gusts: NA
Location:  3.54°S, 40.45°W
Report Text: SBPB 221000Z 10016KT 9999 FEW020 29/22 Q1010
Loading
Personal Weather Stations






























Interactive Weather Map New forecast layout! Learn more

10-Day Weather Forecast

Advertisements
Track Severe Weather on mobile